Time;durP1;ratioP1;P1;durP2;ratioP2;P2;SDS_P1;SDS_P2;PMS_P1;PMS_P2;Temp;Humidity;BMP_temperature;BMP_pressure;BME280_temperature;BME280_humidity;BME280_pressure;Samples;Min_cycle;Max_cycle;Signal;HPM_P1;HPM_P2
2020/12/01 13:03:20;;;;;;;435.73;138.73;;;;;;;;;;5112140;27;1715967;-65
2020/12/01 13:05:46;;;;;;;455.92;156.07;;;;;;;;;;5152000;27;20376;-67
2020/12/01 13:08:13;;;;;;;453.48;155.45;;;;;;;;;;5151367;27;20362;-66
2020/12/01 13:10:39;;;;;;;455.58;160.73;;;;;;;;;;5151368;27;20383;-67
2020/12/01 13:13:05;;;;;;;450.73;154.25;;;;;;;;;;5151294;27;20718;-66
2020/12/01 13:15:31;;;;;;;436.60;140.35;;;;;;;;;;5150967;27;20413;-66
2020/12/01 13:17:58;;;;;;;436.92;142.48;;;;;;;;;;5151229;27;20755;-75
2020/12/01 13:20:25;;;;;;;434.25;139.43;;;;;;;;;;5150904;27;20842;-68
2020/12/01 13:22:52;;;;;;;426.20;132.50;;;;;;;;;;5150827;27;20396;-71
2020/12/01 13:25:18;;;;;;;435.40;138.68;;;;;;;;;;5150817;27;20357;-67
2020/12/01 13:27:44;;;;;;;439.00;139.80;;;;;;;;;;5151095;27;20364;-66
2020/12/01 13:30:12;;;;;;;443.35;142.98;;;;;;;;;;5150919;27;20360;-68
2020/12/01 13:32:38;;;;;;;436.25;136.00;;;;;;;;;;5150956;27;20933;-68
2020/12/01 13:35:05;;;;;;;434.98;135.98;;;;;;;;;;5150660;27;20375;-67
2020/12/01 13:37:31;;;;;;;435.48;133.63;;;;;;;;;;5150697;27;20581;-66
2020/12/01 13:39:57;;;;;;;430.92;130.40;;;;;;;;;;5151676;27;20349;-75
2020/12/01 13:42:24;;;;;;;429.63;129.52;;;;;;;;;;5150559;27;20503;-73
2020/12/01 13:44:50;;;;;;;428.03;125.40;;;;;;;;;;5150593;27;20356;-74
2020/12/01 13:47:16;;;;;;;425.10;126.78;;;;;;;;;;5150818;27;20368;-65
2020/12/01 13:49:43;;;;;;;420.88;122.90;;;;;;;;;;5150786;27;20352;-67
2020/12/01 13:52:10;;;;;;;422.17;121.47;;;;;;;;;;5150481;27;20375;-67
2020/12/01 13:54:37;;;;;;;423.90;120.50;;;;;;;;;;5150464;27;20370;-76
2020/12/01 13:57:03;;;;;;;427.52;122.40;;;;;;;;;;5150600;27;20357;-67
2020/12/01 13:59:29;;;;;;;425.85;121.63;;;;;;;;;;5150908;27;20702;-74
2020/12/01 14:01:59;;;;;;;430.77;123.87;;;;;;;;;;5150115;27;20859;-66
2020/12/01 14:04:25;;;;;;;307.92;116.53;;;;;;;;;;5150566;27;20521;-70
2020/12/01 14:06:54;;;;;;;120.72;93.35;;;;;;;;;;5150177;27;20448;-68
2020/12/01 14:09:21;;;;;;;366.83;129.10;;;;;;;;;;5150132;27;20363;-66
2020/12/01 14:11:48;;;;;;;135.68;94.28;;;;;;;;;;5150349;27;20392;-66
2020/12/01 14:14:14;;;;;;;141.75;99.63;;;;;;;;;;5138111;27;20399;-66
2020/12/01 14:16:41;;;;;;;293.67;122.68;;;;;;;;;;5136061;27;20361;-67
2020/12/01 14:19:07;;;;;;;361.02;127.82;;;;;;;;;;5136336;27;20694;-73
2020/12/01 14:21:33;;;;;;;300.70;119.15;;;;;;;;;;5135963;27;20397;-66
2020/12/01 14:23:59;;;;;;;319.33;121.83;;;;;;;;;;5136007;27;20357;-66
2020/12/01 14:26:25;;;;;;;333.52;120.28;;;;;;;;;;5136009;27;20854;-66
2020/12/01 14:28:53;;;;;;;374.57;122.80;;;;;;;;;;5136283;27;20380;-66
2020/12/01 14:31:21;;;;;;;326.15;119.30;;;;;;;;;;5117427;27;20362;-66
2020/12/01 14:33:48;;;;;;;313.93;116.63;;;;;;;;;;5136137;27;20364;-74
2020/12/01 14:36:16;;;;;;;311.33;118.95;;;;;;;;;;5135996;27;20357;-67
2020/12/01 14:38:42;;;;;;;267.58;113.90;;;;;;;;;;5135654;27;20369;-67
2020/12/01 14:41:09;;;;;;;350.50;121.17;;;;;;;;;;5135590;27;20366;-66
2020/12/01 14:43:35;;;;;;;420.25;123.30;;;;;;;;;;5135638;27;20418;-66
2020/12/01 14:46:02;;;;;;;422.57;120.70;;;;;;;;;;5135632;27;20354;-66
2020/12/01 14:48:43;;;;;;;429.40;117.30;;;;;;;;;;5135586;27;20896;-66
2020/12/01 14:51:24;;;;;;;414.37;117.30;;;;;;;;;;5135794;27;20365;-66
2020/12/01 14:53:51;;;;;;;412.10;117.50;;;;;;;;;;5135747;27;20357;-66
2020/12/01 14:56:29;;;;;;;406.80;117.90;;;;;;;;;;5135466;27;20410;-67
2020/12/01 14:59:09;;;;;;;390.40;118.80;;;;;;;;;;5135375;27;20356;-67
2020/12/01 15:01:38;;;;;;;408.90;118.15;;;;;;;;;;5135007;27;20397;-67
2020/12/01 15:04:07;;;;;;;415.98;117.63;;;;;;;;;;5135266;27;20369;-67
2020/12/01 15:06:45;;;;;;;408.35;115.07;;;;;;;;;;5135517;27;20381;-66
2020/12/01 15:09:17;;;;;;;408.70;114.78;;;;;;;;;;5135182;27;20753;-68
2020/12/01 15:11:52;;;;;;;406.17;114.95;;;;;;;;;;5135314;27;20349;-67
2020/12/01 15:14:19;;;;;;;394.25;115.18;;;;;;;;;;5135380;27;20753;-67
2020/12/01 15:17:00;;;;;;;403.98;112.85;;;;;;;;;;5135237;27;20360;-67
2020/12/01 15:19:28;;;;;;;411.70;112.78;;;;;;;;;;5134853;27;20375;-67
2020/12/01 15:21:58;;;;;;;420.67;114.33;;;;;;;;;;5134819;27;20918;-68
2020/12/01 15:24:26;;;;;;;419.58;115.53;;;;;;;;;;5134479;27;20353;-74
2020/12/01 15:26:52;;;;;;;410.60;115.13;;;;;;;;;;5134406;27;20846;-66
2020/12/01 15:29:19;;;;;;;398.20;113.82;;;;;;;;;;5134769;27;20386;-66
2020/12/01 15:31:45;;;;;;;403.80;112.23;;;;;;;;;;5135297;27;21045;-75
2020/12/01 15:34:11;;;;;;;421.95;111.90;;;;;;;;;;5134704;27;20372;-75
2020/12/01 15:36:40;;;;;;;426.90;111.35;;;;;;;;;;5134595;27;20722;-66
2020/12/01 15:39:07;;;;;;;429.45;110.32;;;;;;;;;;5134582;27;20371;-66
2020/12/01 15:41:34;;;;;;;428.63;110.07;;;;;;;;;;5134338;27;20411;-66
2020/12/01 15:44:02;;;;;;;428.63;111.00;;;;;;;;;;5134727;27;20842;-66
2020/12/01 15:46:35;;;;;;;426.90;110.33;;;;;;;;;;5134312;27;20357;-66
2020/12/01 15:49:02;;;;;;;429.10;110.07;;;;;;;;;;5134329;27;20726;-73
2020/12/01 15:51:29;;;;;;;426.67;108.95;;;;;;;;;;5134360;27;20372;-74
2020/12/01 15:54:04;;;;;;;428.00;110.28;;;;;;;;;;5134767;27;20385;-76
2020/12/01 15:56:53;;;;;;;428.45;109.85;;;;;;;;;;5134118;27;20493;-78
2020/12/01 15:59:29;;;;;;;382.88;110.18;;;;;;;;;;5086876;27;20719;-67
2020/12/01 16:01:58;;;;;;;388.92;111.35;;;;;;;;;;5134094;27;20400;-67
2020/12/01 16:04:43;;;;;;;380.83;109.88;;;;;;;;;;5133172;27;20369;-67
2020/12/01 16:07:27;;;;;;;391.63;107.93;;;;;;;;;;5132996;27;20881;-68
2020/12/01 16:10:08;;;;;;;401.47;105.23;;;;;;;;;;5134227;27;20401;-69
2020/12/01 16:12:46;;;;;;;385.92;109.97;;;;;;;;;;5134253;27;25152;-68
2020/12/01 16:15:13;;;;;;;280.63;100.07;;;;;;;;;;5133708;27;20361;-68
2020/12/01 16:17:42;;;;;;;255.05;97.45;;;;;;;;;;5133802;27;20365;-77
2020/12/01 16:20:14;;;;;;;260.17;98.83;;;;;;;;;;5134038;27;20516;-68
2020/12/01 16:22:41;;;;;;;279.77;100.82;;;;;;;;;;5133573;27;20431;-68
2020/12/01 16:25:10;;;;;;;312.35;104.70;;;;;;;;;;5133953;27;20381;-68
2020/12/01 16:27:55;;;;;;;319.75;104.45;;;;;;;;;;5133886;27;20400;-68
2020/12/01 16:30:24;;;;;;;307.58;102.93;;;;;;;;;;5133523;27;20365;-77
2020/12/01 16:32:51;;;;;;;301.80;102.47;;;;;;;;;;5133493;27;20365;-77
2020/12/01 16:35:18;;;;;;;299.42;102.47;;;;;;;;;;5133409;27;20429;-77
2020/12/01 16:37:47;;;;;;;317.98;103.50;;;;;;;;;;5133400;27;20406;-69
2020/12/01 16:40:19;;;;;;;307.13;102.25;;;;;;;;;;5133558;27;20364;-69
2020/12/01 16:42:45;;;;;;;428.80;107.90;;;;;;;;;;5133585;27;20877;-78
2020/12/01 16:45:20;;;;;;;429.87;107.20;;;;;;;;;;5133332;27;20364;-77
2020/12/01 16:48:00;;;;;;;404.58;107.30;;;;;;;;;;5133300;27;20444;-76
2020/12/01 16:50:32;;;;;;;358.80;105.80;;;;;;;;;;5133626;27;20406;-77
2020/12/01 16:53:11;;;;;;;290.33;99.80;;;;;;;;;;5133604;27;20405;-68
2020/12/01 16:55:55;;;;;;;264.45;95.80;;;;;;;;;;5133184;27;20396;-78
2020/12/01 16:58:26;;;;;;;272.33;95.85;;;;;;;;;;5133058;27;20393;-76
2020/12/01 17:00:53;;;;;;;262.23;94.78;;;;;;;;;;5133114;28;20353;-72
2020/12/01 17:03:38;;;;;;;306.92;99.55;;;;;;;;;;5132871;28;20404;-76
2020/12/01 17:06:22;;;;;;;336.35;103.50;;;;;;;;;;5133012;28;20353;-70
2020/12/01 17:08:49;;;;;;;334.60;102.30;;;;;;;;;;5132999;28;20451;-67
2020/12/01 17:11:15;;;;;;;322.48;100.75;;;;;;;;;;5133038;28;20361;-68
2020/12/01 17:13:59;;;;;;;313.38;100.50;;;;;;;;;;5133309;28;20715;-69
2020/12/01 17:16:48;;;;;;;298.95;98.95;;;;;;;;;;5130811;28;20401;-78
2020/12/01 17:19:14;;;;;;;292.98;97.65;;;;;;;;;;5111550;28;20370;-69
2020/12/01 17:21:42;;;;;;;276.25;94.93;;;;;;;;;;5112180;28;20402;-77
2020/12/01 17:24:16;;;;;;;273.58;94.53;;;;;;;;;;5111992;28;20363;-68
2020/12/01 17:26:48;;;;;;;275.35;94.93;;;;;;;;;;5111759;28;20384;-70
2020/12/01 17:29:16;;;;;;;255.85;92.05;;;;;;;;;;5112141;28;20840;-69
2020/12/01 17:31:47;;;;;;;227.73;89.68;;;;;;;;;;5112124;28;20363;-68
2020/12/01 17:34:19;;;;;;;195.52;84.57;;;;;;;;;;5111826;28;20351;-75
2020/12/01 17:36:47;;;;;;;193.23;84.90;;;;;;;;;;5127016;28;20456;-68
2020/12/01 17:39:14;;;;;;;203.38;85.88;;;;;;;;;;5126409;28;20351;-78
2020/12/01 17:41:40;;;;;;;226.13;90.05;;;;;;;;;;5111593;28;20386;-67
2020/12/01 17:44:17;;;;;;;229.00;89.78;;;;;;;;;;5111846;28;20399;-67
2020/12/01 17:46:49;;;;;;;212.20;86.97;;;;;;;;;;5112099;28;20867;-68
2020/12/01 17:49:26;;;;;;;236.65;88.97;;;;;;;;;;5114320;28;20370;-68
2020/12/01 17:51:57;;;;;;;260.02;91.95;;;;;;;;;;5115802;28;20415;-72
2020/12/01 17:54:24;;;;;;;235.85;65.47;;;;;;;;;;5116122;28;20393;-73
2020/12/01 17:56:52;;;;;;;6.03;5.63;;;;;;;;;;5115969;28;20364;-72
2020/12/01 17:59:25;;;;;;;0.93;0.93;;;;;;;;;;5115860;28;20359;-76
2020/12/01 18:01:51;;;;;;;;;;;;;;;;;;5116868;28;20435;-68
2020/12/01 18:04:17;;;;;;;;;;;;;;;;;;5117211;28;19911;-75
2020/12/01 18:06:43;;;;;;;;;;;;;;;;;;5117425;28;20354;-68
2020/12/01 18:09:09;;;;;;;;;;;;;;;;;;5117395;28;19904;-74
2020/12/01 18:11:35;;;;;;;;;;;;;;;;;;5117110;28;19903;-74
2020/12/01 18:14:01;;;;;;;;;;;;;;;;;;5117146;28;19908;-69
2020/12/01 18:16:27;;;;;;;;;;;;;;;;;;5117804;28;19904;-76
2020/12/01 18:18:53;;;;;;;;;;;;;;;;;;5116939;28;19904;-68
2020/12/01 18:21:19;;;;;;;;;;;;;;;;;;5117015;28;19904;-69
2020/12/01 18:23:46;;;;;;;366.73;97.60;;;;;;;;;;5117191;28;19904;-78
2020/12/01 18:26:28;;;;;;;404.20;100.90;;;;;;;;;;5114934;28;20375;-71
2020/12/01 18:28:57;;;;;;;401.65;99.47;;;;;;;;;;5115284;28;20362;-69
2020/12/01 18:31:35;;;;;;;385.98;96.47;;;;;;;;;;5115280;28;20385;-69
2020/12/01 18:34:13;;;;;;;378.80;95.75;;;;;;;;;;5115052;28;20864;-69
2020/12/01 18:36:40;;;;;;;377.02;96.95;;;;;;;;;;5114837;28;20845;-77
2020/12/01 18:39:06;;;;;;;377.10;96.57;;;;;;;;;;5114840;28;20866;-77
2020/12/01 18:41:33;;;;;;;379.42;96.15;;;;;;;;;;5114900;28;20390;-68
2020/12/01 18:44:20;;;;;;;391.23;97.30;;;;;;;;;;5114930;28;20370;-69
2020/12/01 18:46:51;;;;;;;391.63;98.00;;;;;;;;;;5114782;28;20378;-78
2020/12/01 18:49:17;;;;;;;382.33;94.53;;;;;;;;;;5114869;28;20446;-79
2020/12/01 18:51:44;;;;;;;375.42;94.30;;;;;;;;;;5114765;28;20359;-75
2020/12/01 18:54:10;;;;;;;383.55;96.25;;;;;;;;;;5114364;28;20365;-69
2020/12/01 18:56:36;;;;;;;381.77;93.97;;;;;;;;;;5114629;28;20355;-81
2020/12/01 18:59:03;;;;;;;377.40;93.55;;;;;;;;;;5114289;28;20361;-70
2020/12/01 19:01:29;;;;;;;365.92;98.03;;;;;;;;;;5113932;28;20425;-80
2020/12/01 19:03:55;;;;;;;388.30;95.68;;;;;;;;;;5114457;28;20375;-71
2020/12/01 19:06:23;;;;;;;387.27;95.22;;;;;;;;;;5114380;28;20363;-77
2020/12/01 19:08:53;;;;;;;383.55;95.03;;;;;;;;;;5114570;28;20375;-80
2020/12/01 19:11:20;;;;;;;375.45;93.93;;;;;;;;;;5114418;28;20381;-77
2020/12/01 19:13:49;;;;;;;377.25;94.63;;;;;;;;;;5114486;28;20793;-69
2020/12/01 19:16:15;;;;;;;;;;;;;;;;;;5113284;28;20970;-72
2020/12/01 19:18:41;;;;;;;413.90;100.88;;;;;;;;;;5114263;28;20501;-71
2020/12/01 19:21:07;;;;;;;406.48;99.10;;;;;;;;;;5095933;28;20375;-78
2020/12/01 19:23:34;;;;;;;410.63;101.80;;;;;;;;;;5114162;28;20785;-78
2020/12/01 19:26:01;;;;;;;409.25;97.90;;;;;;;;;;5114090;28;20788;-78
2020/12/01 19:28:27;;;;;;;403.92;98.75;;;;;;;;;;5114153;28;20459;-78
2020/12/01 19:30:54;;;;;;;411.23;100.25;;;;;;;;;;5113652;28;20350;-68
2020/12/01 19:33:20;;;;;;;405.45;97.32;;;;;;;;;;5114128;28;20359;-77
2020/12/01 19:35:46;;;;;;;410.37;98.73;;;;;;;;;;5114026;28;20488;-76
2020/12/01 19:38:12;;;;;;;411.90;98.60;;;;;;;;;;5114087;28;20424;-70
2020/12/01 19:40:39;;;;;;;413.13;99.47;;;;;;;;;;5113985;28;20371;-75
2020/12/01 19:43:05;;;;;;;412.15;99.13;;;;;;;;;;5113908;28;20398;-70
2020/12/01 19:45:31;;;;;;;413.02;99.32;;;;;;;;;;5114727;28;20449;-75
2020/12/01 19:47:57;;;;;;;408.60;98.57;;;;;;;;;;5113808;28;20412;-75
2020/12/01 19:50:25;;;;;;;404.92;96.70;;;;;;;;;;5113758;28;20864;-70
2020/12/01 19:52:51;;;;;;;404.50;96.53;;;;;;;;;;5113809;28;20395;-75
2020/12/01 19:55:18;;;;;;;404.83;97.22;;;;;;;;;;5113865;28;20359;-70
2020/12/01 19:57:44;;;;;;;407.20;98.03;;;;;;;;;;5113911;28;20371;-70
2020/12/01 20:00:13;;;;;;;405.20;97.07;;;;;;;;;;5113828;28;20767;-76
2020/12/01 20:02:40;;;;;;;402.17;95.65;;;;;;;;;;5113385;28;20399;-75
2020/12/01 20:05:06;;;;;;;400.00;95.30;;;;;;;;;;5113732;28;20378;-69
2020/12/01 20:07:32;;;;;;;401.20;95.43;;;;;;;;;;5113397;28;20442;-71
2020/12/01 20:09:58;;;;;;;399.27;94.70;;;;;;;;;;5113368;28;20366;-70
2020/12/01 20:12:25;;;;;;;399.00;97.38;;;;;;;;;;5112983;28;20868;-75
2020/12/01 20:14:51;;;;;;;400.80;95.43;;;;;;;;;;5113291;28;20363;-70
2020/12/01 20:17:18;;;;;;;402.02;95.75;;;;;;;;;;5113214;28;20354;-76
2020/12/01 20:19:44;;;;;;;402.45;96.88;;;;;;;;;;5113196;28;20355;-76
2020/12/01 20:22:11;;;;;;;402.43;96.33;;;;;;;;;;5113700;28;20458;-76
2020/12/01 20:24:37;;;;;;;401.85;95.68;;;;;;;;;;5113512;28;20379;-75
2020/12/01 20:27:04;;;;;;;401.90;95.85;;;;;;;;;;5113445;28;20371;-70
2020/12/01 20:29:30;;;;;;;402.13;96.10;;;;;;;;;;5112978;28;20499;-76
2020/12/01 20:31:56;;;;;;;402.02;96.38;;;;;;;;;;5112982;28;20831;-77
2020/12/01 20:34:22;;;;;;;400.90;95.85;;;;;;;;;;5113015;28;20402;-69
2020/12/01 20:36:49;;;;;;;399.85;95.47;;;;;;;;;;5113191;28;20713;-71
2020/12/01 20:39:33;;;;;;;398.75;94.97;;;;;;;;;;5113233;28;20427;-70
2020/12/01 20:42:00;;;;;;;397.67;95.80;;;;;;;;;;5113433;28;20430;-70
2020/12/01 20:44:26;;;;;;;395.80;93.85;;;;;;;;;;5113145;28;20371;-74
2020/12/01 20:46:53;;;;;;;394.98;93.47;;;;;;;;;;5113051;28;20371;-69
2020/12/01 20:49:19;;;;;;;391.23;93.15;;;;;;;;;;5113021;28;20785;-69
2020/12/01 20:51:45;;;;;;;389.85;93.03;;;;;;;;;;5113297;28;20359;-69
2020/12/01 20:54:12;;;;;;;386.38;92.18;;;;;;;;;;5112667;28;20840;-75
2020/12/01 20:56:38;;;;;;;388.77;93.07;;;;;;;;;;5112677;28;20378;-69
2020/12/01 20:59:05;;;;;;;386.50;91.90;;;;;;;;;;5112615;28;20358;-70
2020/12/01 21:01:31;;;;;;;384.20;91.82;;;;;;;;;;5112395;28;20402;-70
2020/12/01 21:03:57;;;;;;;386.80;97.57;;;;;;;;;;5110773;28;20386;-69
2020/12/01 21:06:23;;;;;;;385.55;92.53;;;;;;;;;;5127762;28;20858;-69
2020/12/01 21:08:50;;;;;;;394.57;94.80;;;;;;;;;;5132813;28;20823;-70
2020/12/01 21:11:23;;;;;;;396.42;94.15;;;;;;;;;;5132633;28;20353;-69
2020/12/01 21:13:51;;;;;;;400.23;94.25;;;;;;;;;;5132879;28;20857;-76
2020/12/01 21:16:18;;;;;;;399.37;94.23;;;;;;;;;;5132540;28;20612;-70
2020/12/01 21:18:45;;;;;;;399.60;94.68;;;;;;;;;;5132897;28;20831;-69
2020/12/01 21:21:13;;;;;;;398.00;94.63;;;;;;;;;;5132743;28;20865;-70
2020/12/01 21:23:40;;;;;;;395.02;94.07;;;;;;;;;;5135934;27;20373;-76
2020/12/01 21:26:25;;;;;;;393.37;92.27;;;;;;;;;;5136819;27;20455;-70
2020/12/01 21:28:55;;;;;;;398.80;95.22;;;;;;;;;;5136908;27;20429;-70
2020/12/01 21:31:40;;;;;;;393.65;94.22;;;;;;;;;;5136800;27;20368;-75
2020/12/01 21:34:12;;;;;;;391.75;93.47;;;;;;;;;;5136697;27;20392;-69
2020/12/01 21:36:40;;;;;;;388.67;92.60;;;;;;;;;;5137087;27;20353;-71
2020/12/01 21:39:07;;;;;;;386.90;91.40;;;;;;;;;;5136956;27;20365;-75
2020/12/01 21:41:46;;;;;;;386.45;91.60;;;;;;;;;;5136730;27;20384;-69
2020/12/01 21:44:15;;;;;;;385.25;92.18;;;;;;;;;;5136505;27;20441;-69
2020/12/01 21:46:49;;;;;;;385.58;91.22;;;;;;;;;;5136783;27;20411;-69
2020/12/01 21:49:15;;;;;;;386.27;91.85;;;;;;;;;;5136553;27;20352;-70
2020/12/01 21:51:41;;;;;;;384.80;91.05;;;;;;;;;;5136800;27;20353;-70
2020/12/01 21:54:28;;;;;;;382.45;91.28;;;;;;;;;;5136172;27;20406;-69
2020/12/01 21:56:59;;;;;;;384.20;91.93;;;;;;;;;;5136212;27;20436;-70
2020/12/01 21:59:25;;;;;;;383.67;91.82;;;;;;;;;;5136571;27;20400;-76
2020/12/01 22:01:51;;;;;;;386.35;92.15;;;;;;;;;;5135784;27;20420;-74
2020/12/01 22:04:24;;;;;;;384.92;92.53;;;;;;;;;;5136069;27;20452;-73
2020/12/01 22:07:13;;;;;;;385.42;93.03;;;;;;;;;;5136594;27;20780;-69
2020/12/01 22:09:49;;;;;;;384.63;91.97;;;;;;;;;;5135956;27;20357;-74
2020/12/01 22:12:24;;;;;;;383.52;91.80;;;;;;;;;;5135992;27;20353;-69
2020/12/01 22:14:54;;;;;;;381.33;90.70;;;;;;;;;;5136388;27;20358;-76
2020/12/01 22:17:26;;;;;;;380.58;91.03;;;;;;;;;;5135937;27;20888;-76
2020/12/01 22:19:59;;;;;;;376.88;90.40;;;;;;;;;;5136104;27;20365;-71
2020/12/01 22:22:29;;;;;;;376.83;91.60;;;;;;;;;;5135709;27;20404;-70
2020/12/01 22:24:55;;;;;;;373.03;90.10;;;;;;;;;;5136163;27;20760;-70
2020/12/01 22:27:47;;;;;;;374.40;90.65;;;;;;;;;;5135971;27;20361;-69
2020/12/01 22:30:30;;;;;;;369.15;89.82;;;;;;;;;;5116829;27;20373;-69
2020/12/01 22:33:14;;;;;;;366.40;89.07;;;;;;;;;;5136093;27;20735;-70
2020/12/01 22:35:58;;;;;;;365.88;88.80;;;;;;;;;;5134891;27;20846;-75
2020/12/01 22:38:26;;;;;;;364.15;89.72;;;;;;;;;;5135445;27;20422;-70
2020/12/01 22:40:59;;;;;;;364.17;88.60;;;;;;;;;;5135510;27;20400;-70
2020/12/01 22:43:55;;;;;;;364.77;90.07;;;;;;;;;;5135365;27;20488;-69
2020/12/01 22:46:24;;;;;;;366.65;90.25;;;;;;;;;;5113266;27;20401;-69
2020/12/01 22:49:08;;;;;;;371.15;90.18;;;;;;;;;;5135411;27;20365;-70
2020/12/01 22:51:44;;;;;;;369.27;89.93;;;;;;;;;;5135339;27;20462;-70
2020/12/01 22:54:30;;;;;;;367.17;89.60;;;;;;;;;;5135403;27;20365;-69
2020/12/01 22:57:02;;;;;;;366.60;88.90;;;;;;;;;;5135322;27;20354;-69
2020/12/01 22:59:29;;;;;;;365.50;89.50;;;;;;;;;;5135174;27;20361;-75
2020/12/01 23:01:55;;;;;;;365.77;88.97;;;;;;;;;;5135050;27;20945;-70
2020/12/01 23:04:21;;;;;;;362.23;88.70;;;;;;;;;;5135050;27;20762;-70
2020/12/01 23:06:54;;;;;;;361.50;89.05;;;;;;;;;;5134999;27;20353;-70
2020/12/01 23:09:20;;;;;;;355.73;91.30;;;;;;;;;;5135311;27;20412;-70
2020/12/01 23:11:53;;;;;;;372.70;88.88;;;;;;;;;;5135046;27;20357;-70
2020/12/01 23:14:25;;;;;;;373.25;89.30;;;;;;;;;;5134736;27;20854;-72
2020/12/01 23:16:57;;;;;;;374.20;90.03;;;;;;;;;;5135436;27;20444;-73
2020/12/01 23:19:23;;;;;;;372.30;89.38;;;;;;;;;;5134987;27;20395;-73
2020/12/01 23:21:51;;;;;;;373.70;89.70;;;;;;;;;;5134926;27;20396;-73
2020/12/01 23:24:17;;;;;;;369.92;89.53;;;;;;;;;;5135009;27;20480;-73
2020/12/01 23:26:48;;;;;;;371.25;89.57;;;;;;;;;;5134877;27;20365;-73
2020/12/01 23:29:18;;;;;;;367.13;89.83;;;;;;;;;;5135115;27;20350;-73
2020/12/01 23:31:47;;;;;;;360.70;87.80;;;;;;;;;;5134757;27;20456;-74
2020/12/01 23:34:13;;;;;;;359.63;88.35;;;;;;;;;;5135016;27;20448;-73
2020/12/01 23:36:39;;;;;;;355.95;87.15;;;;;;;;;;5134929;27;20369;-73
2020/12/01 23:39:06;;;;;;;352.02;86.85;;;;;;;;;;5134607;27;20384;-73
2020/12/01 23:41:44;;;;;;;348.48;88.20;;;;;;;;;;5134415;27;20365;-72
2020/12/01 23:44:13;;;;;;;336.08;88.70;;;;;;;;;;5134837;27;20436;-73
2020/12/01 23:46:39;;;;;;;371.65;89.40;;;;;;;;;;5133349;27;20357;-73
2020/12/01 23:49:10;;;;;;;376.13;90.90;;;;;;;;;;5134674;27;20418;-74
2020/12/01 23:51:37;;;;;;;368.95;88.03;;;;;;;;;;5134399;27;20853;-73
2020/12/01 23:54:04;;;;;;;367.33;88.30;;;;;;;;;;5134206;27;20352;-73
2020/12/01 23:56:30;;;;;;;380.38;89.82;;;;;;;;;;5134221;27;20369;-74
2020/12/01 23:58:57;;;;;;;382.85;90.20;;;;;;;;;;5134533;27;20857;-74
